Time;durP1;ratioP1;P1;durP2;ratioP2;P2;SDS_P1;SDS_P2;PMS_P1;PMS_P2;Temp;Humidity;BMP_temperature;BMP_pressure;BME280_temperature;BME280_humidity;BME280_pressure;Samples;Min_cycle;Max_cycle;Signal;HPM_P1;HPM_P2
2022/01/15 00:00:52;;;;;;;50.95;23.65;;;;;;;-4.54;100.00;96073.63;5009683;28;20024;-63
2022/01/15 00:03:18;;;;;;;47.30;23.55;;;;;;;-4.55;100.00;96075.44;5013070;28;20223;-64
2022/01/15 00:05:43;;;;;;;45.30;22.33;;;;;;;-4.57;100.00;96068.69;5013539;28;20018;-63
2022/01/15 00:08:09;;;;;;;46.03;22.80;;;;;;;-4.61;100.00;96070.78;5013080;28;20061;-63
2022/01/15 00:10:37;;;;;;;46.00;23.67;;;;;;;-4.60;100.00;96066.38;4996096;28;20026;-63
2022/01/15 00:13:03;;;;;;;46.30;22.88;;;;;;;-4.62;100.00;96066.53;4992204;28;20504;-63
2022/01/15 00:15:33;;;;;;;48.95;23.77;;;;;;;-4.69;100.00;96052.38;4993440;28;20034;-63
2022/01/15 00:18:02;;;;;;;45.33;23.73;;;;;;;-4.73;100.00;96059.72;4993694;28;20022;-63
2022/01/15 00:20:29;;;;;;;42.70;21.98;;;;;;;-4.77;100.00;96050.53;4993316;28;20038;-63
2022/01/15 00:22:56;;;;;;;44.60;22.48;;;;;;;-4.83;100.00;96051.09;4992029;28;20030;-63
2022/01/15 00:25:23;;;;;;;43.95;22.30;;;;;;;-4.90;100.00;96049.22;4993169;28;20540;-63
2022/01/15 00:27:49;;;;;;;46.33;23.63;;;;;;;-4.96;100.00;96051.44;4993376;28;20026;-63
2022/01/15 00:30:16;;;;;;;43.58;22.75;;;;;;;-4.94;100.00;96040.03;4993344;28;20022;-61
2022/01/15 00:32:42;;;;;;;44.97;22.50;;;;;;;-4.93;100.00;96036.44;5008403;28;20030;-61
2022/01/15 00:35:10;;;;;;;42.50;21.75;;;;;;;-4.94;100.00;96035.63;4991950;28;20022;-63
2022/01/15 00:37:36;;;;;;;49.20;23.75;;;;;;;-4.97;100.00;96031.53;4991855;28;20034;-63
2022/01/15 00:40:05;;;;;;;43.45;21.63;;;;;;;-4.96;100.00;96024.50;4992906;28;20049;-63
2022/01/15 00:42:32;;;;;;;45.15;22.25;;;;;;;-4.93;100.00;96026.00;4991737;28;20044;-63
2022/01/15 00:44:59;;;;;;;43.95;22.15;;;;;;;-4.94;100.00;96025.16;4993055;28;20018;-62
2022/01/15 00:47:28;;;;;;;46.15;22.80;;;;;;;-4.97;100.00;96026.28;4993040;28;20100;-62
2022/01/15 00:49:53;;;;;;;45.80;22.42;;;;;;;-4.99;100.00;96024.81;4991520;28;20027;-63
2022/01/15 00:52:19;;;;;;;42.08;22.48;;;;;;;-5.03;100.00;96020.81;4991749;28;20491;-62
2022/01/15 00:54:44;;;;;;;42.83;21.48;;;;;;;-5.04;100.00;96016.56;4991829;28;20038;-63
2022/01/15 00:57:09;;;;;;;42.67;22.05;;;;;;;-5.00;100.00;96010.88;4992724;28;20058;-62
2022/01/15 00:59:35;;;;;;;43.08;21.83;;;;;;;-4.97;100.00;96015.03;4991857;28;20029;-63
2022/01/15 01:02:00;;;;;;;40.42;21.13;;;;;;;-4.96;100.00;96012.25;4992757;28;20469;-62
2022/01/15 01:04:26;;;;;;;42.80;22.40;;;;;;;-4.92;100.00;96010.16;4992750;28;20278;-63
2022/01/15 01:06:51;;;;;;;48.92;22.35;;;;;;;-4.82;100.00;96007.50;4991433;28;20034;-63
2022/01/15 01:09:16;;;;;;;44.55;21.85;;;;;;;-4.84;100.00;95997.19;5005375;28;20029;-63
2022/01/15 01:11:54;;;;;;;43.83;21.60;;;;;;;-4.89;100.00;95995.97;4992618;28;20052;-63
2022/01/15 01:25:15;;;;;;;45.33;21.52;;;;;;;-5.07;100.00;95993.34;4992367;28;20570;-63
2022/01/15 01:27:46;;;;;;;39.00;21.92;;;;;;;-5.07;100.00;95991.56;4992187;28;20030;-60
2022/01/15 01:32:51;;;;;;;50.22;22.88;;;;;;;-5.02;100.00;95983.28;4992177;28;20644;-62
2022/01/15 01:35:42;;;;;;;45.22;22.15;;;;;;;-4.96;100.00;95980.91;4992203;28;20022;-62
2022/01/15 01:40:50;;;;;;;50.13;22.25;;;;;;;-4.88;100.00;95966.28;4992466;28;20033;-62
2022/01/15 01:45:53;;;;;;;44.22;21.25;;;;;;;-4.98;100.00;95979.41;4991066;28;20027;-62
2022/01/15 01:48:18;;;;;;;43.10;22.20;;;;;;;-5.05;100.00;95976.56;4992019;28;20088;-62
2022/01/15 01:50:44;;;;;;;41.17;20.20;;;;;;;-5.11;100.00;95979.75;4991691;28;20026;-62
2022/01/15 01:53:09;;;;;;;41.47;20.25;;;;;;;-5.13;100.00;95975.66;4991727;28;20030;-62
2022/01/15 01:55:35;;;;;;;42.53;21.95;;;;;;;-5.18;100.00;95968.25;4991571;28;20022;-62
2022/01/15 01:58:01;;;;;;;40.65;20.63;;;;;;;-5.23;100.00;95970.47;4991511;28;20026;-61
2022/01/15 02:00:28;;;;;;;43.50;21.90;;;;;;;-5.29;100.00;95966.66;4990258;28;20121;-60
2022/01/15 02:02:54;;;;;;;43.58;21.70;;;;;;;-5.33;100.00;95960.06;4991713;28;20030;-62
2022/01/15 02:05:20;;;;;;;42.55;20.70;;;;;;;-5.33;100.00;95962.69;4991453;28;20381;-61
2022/01/15 02:07:46;;;;;;;38.92;20.80;;;;;;;-5.32;100.00;95963.50;4997682;28;20022;-61
2022/01/15 02:10:14;;;;;;;40.10;21.20;;;;;;;-5.37;100.00;95961.34;5010041;28;20076;-62
2022/01/15 02:12:40;;;;;;;42.55;21.30;;;;;;;-5.46;100.00;95964.81;5010029;28;20372;-62
2022/01/15 02:15:14;;;;;;;44.33;20.95;;;;;;;-5.54;100.00;95964.72;5010755;28;20076;-60
2022/01/15 02:17:41;;;;;;;41.88;21.10;;;;;;;-5.59;100.00;95969.56;5009827;28;20029;-61
2022/01/15 02:25:45;;;;;;;43.75;20.60;;;;;;;-5.56;100.00;95953.59;5010960;28;20088;-62
2022/01/15 02:28:11;;;;;;;41.85;20.98;;;;;;;-5.54;100.00;95964.72;5010637;28;20026;-62
2022/01/15 02:30:37;;;;;;;41.20;20.45;;;;;;;-5.52;100.00;95952.34;5010550;28;20505;-63
2022/01/15 02:33:05;;;;;;;39.03;20.90;;;;;;;-5.45;100.00;95953.41;5009279;28;20408;-60
2022/01/15 02:35:31;;;;;;;44.75;22.95;;;;;;;-5.43;100.00;95943.63;5009536;28;20307;-62
2022/01/15 02:38:08;;;;;;;40.38;19.67;;;;;;;-5.41;100.00;95948.72;5010277;28;20049;-62
2022/01/15 02:40:35;;;;;;;45.50;21.80;;;;;;;-5.42;100.00;95947.91;5010583;28;20022;-62
2022/01/15 02:43:06;;;;;;;42.15;21.48;;;;;;;-5.42;100.00;95947.09;5010471;28;20026;-63
2022/01/15 02:45:34;;;;;;;46.78;21.85;;;;;;;-5.42;100.00;95940.09;5009611;28;20021;-63
2022/01/15 02:48:17;;;;;;;47.72;21.35;;;;;;;-5.45;100.00;95945.56;5010475;28;20026;-63
2022/01/15 02:50:43;;;;;;;42.05;21.38;;;;;;;-5.45;100.00;95940.34;5010706;28;20099;-63
2022/01/15 02:53:11;;;;;;;40.47;20.95;;;;;;;-5.45;100.00;95937.75;5009064;28;20041;-61
2022/01/15 02:55:51;;;;;;;42.13;21.20;;;;;;;-5.45;100.00;95939.53;5010026;28;20088;-63
2022/01/15 02:58:21;;;;;;;41.85;21.00;;;;;;;-5.49;100.00;95927.75;5010369;28;20084;-63
2022/01/15 03:00:47;;;;;;;41.40;20.35;;;;;;;-5.56;100.00;95933.53;5010605;28;20096;-63
2022/01/15 03:03:13;;;;;;;42.30;21.45;;;;;;;-5.57;100.00;95924.06;5010322;28;20054;-63
2022/01/15 03:05:39;;;;;;;44.17;20.70;;;;;;;-5.55;100.00;95936.97;5010217;28;20057;-63
2022/01/15 03:08:04;;;;;;;42.03;20.60;;;;;;;-5.55;100.00;95929.13;5008764;28;20436;-63
2022/01/15 03:10:30;;;;;;;38.97;21.05;;;;;;;-5.59;100.00;95928.63;4993834;28;20062;-63
2022/01/15 03:12:57;;;;;;;37.88;20.83;;;;;;;-5.62;100.00;95925.47;4990768;28;20319;-63
2022/01/15 03:15:23;;;;;;;43.65;20.20;;;;;;;-5.65;100.00;95928.34;4990783;28;20081;-63
2022/01/15 03:17:49;;;;;;;43.63;20.50;;;;;;;-5.68;100.00;95926.03;4990605;28;20485;-62
2022/01/15 03:20:17;;;;;;;40.17;19.75;;;;;;;-5.71;100.00;95923.72;4990441;28;20088;-63
2022/01/15 03:22:43;;;;;;;38.05;20.52;;;;;;;-5.72;100.00;95924.69;4989495;28;20216;-63
2022/01/15 03:25:10;;;;;;;40.67;20.55;;;;;;;-5.72;100.00;95928.13;4990560;28;20033;-63
2022/01/15 03:27:35;;;;;;;38.17;19.70;;;;;;;-5.77;100.00;95935.56;4990624;28;20059;-63
2022/01/15 03:30:01;;;;;;;36.92;20.00;;;;;;;-5.81;100.00;95928.16;4988952;28;20058;-62
2022/01/15 03:32:27;;;;;;;37.42;20.15;;;;;;;-5.86;100.00;95932.03;4989290;28;20080;-63
2022/01/15 03:34:52;;;;;;;39.40;20.08;;;;;;;-5.87;100.00;95925.16;4990291;28;20022;-60
2022/01/15 03:37:18;;;;;;;40.13;20.45;;;;;;;-5.82;100.00;95926.53;4992587;28;20153;-63
2022/01/15 03:39:44;;;;;;;45.85;21.73;;;;;;;-5.84;100.00;95922.28;5005626;23;20047;-59
2022/01/15 03:42:13;;;;;;;38.15;21.08;;;;;;;-5.82;100.00;95911.69;4993810;28;20069;-60
2022/01/15 03:44:44;;;;;;;38.17;19.13;;;;;;;-5.81;100.00;95910.72;4993419;28;20026;-61
2022/01/15 03:47:11;;;;;;;39.75;20.38;;;;;;;-5.78;100.00;95907.81;4994646;28;20084;-62
2022/01/15 03:49:37;;;;;;;38.53;20.45;;;;;;;-5.80;100.00;95898.50;5006352;28;20030;-60
2022/01/15 03:52:04;;;;;;;40.67;19.42;;;;;;;-5.85;100.00;95899.75;5014352;28;20072;-57
2022/01/15 03:54:30;;;;;;;44.05;20.92;;;;;;;-5.88;100.00;95900.03;5013961;28;20050;-61
2022/01/15 03:56:55;;;;;;;40.20;20.55;;;;;;;-5.87;100.00;95895.63;5014176;28;20100;-60
2022/01/15 03:59:21;;;;;;;39.85;19.35;;;;;;;-5.88;100.00;95896.59;5014095;28;20161;-61
2022/01/15 04:01:46;;;;;;;42.13;20.83;;;;;;;-5.92;100.00;95896.09;5014166;28;20034;-60
2022/01/15 04:04:12;;;;;;;37.55;19.50;;;;;;;-5.97;100.00;95892.28;5014014;28;20049;-60
2022/01/15 04:06:38;;;;;;;40.78;20.52;;;;;;;-6.06;100.00;95895.75;5029399;28;20100;-56
2022/01/15 04:09:03;;;;;;;36.25;18.90;;;;;;;-6.14;100.00;95894.69;4995894;28;20062;-61
2022/01/15 04:11:29;;;;;;;36.13;18.58;;;;;;;-6.18;100.00;95895.13;4994582;28;20026;-60
2022/01/15 04:13:54;;;;;;;37.58;19.13;;;;;;;-6.21;100.00;95898.81;4993112;28;20026;-54
2022/01/15 04:16:20;;;;;;;44.17;20.58;;;;;;;-6.25;100.00;95897.47;4994313;28;20026;-55
2022/01/15 04:18:45;;;;;;;35.67;18.23;;;;;;;-6.25;100.00;95896.63;5009087;28;20027;-56
2022/01/15 04:21:11;;;;;;;39.92;19.58;;;;;;;-6.22;100.00;95891.94;4992930;28;20085;-59
2022/01/15 04:23:37;;;;;;;39.60;19.65;;;;;;;-6.14;100.00;95892.06;5005912;28;20109;-59
2022/01/15 04:26:03;;;;;;;36.65;19.83;;;;;;;-6.16;100.00;95896.63;4984350;28;20090;-58
2022/01/15 04:28:31;;;;;;;37.35;19.70;;;;;;;-6.18;100.00;95888.13;5008884;28;20038;-59
2022/01/15 04:31:04;;;;;;;35.45;18.13;;;;;;;-6.22;100.00;95888.53;4993978;28;20113;-59
2022/01/15 04:33:29;;;;;;;39.10;20.20;;;;;;;-6.26;100.00;95887.19;4993769;28;20385;-56
2022/01/15 04:35:55;;;;;;;39.88;19.77;;;;;;;-6.28;100.00;95887.31;4993806;28;20034;-54
2022/01/15 04:38:20;;;;;;;34.30;19.23;;;;;;;-6.25;100.00;95892.25;4993695;28;20058;-56
2022/01/15 04:40:45;;;;;;;37.17;19.10;;;;;;;-6.23;100.00;95895.53;4993916;28;20061;-60
2022/01/15 04:43:11;;;;;;;39.97;20.15;;;;;;;-6.24;100.00;95891.28;4993809;28;20038;-60
2022/01/15 04:45:36;;;;;;;34.90;18.58;;;;;;;-6.22;100.00;95894.56;4993784;28;20034;-59
2022/01/15 04:48:01;;;;;;;38.80;18.58;;;;;;;-6.20;100.00;95890.03;4993253;28;20448;-59
2022/01/15 04:50:27;;;;;;;37.35;19.50;;;;;;;-6.22;100.00;95897.16;4993707;28;20036;-58
2022/01/15 04:52:52;;;;;;;42.17;19.67;;;;;;;-6.20;100.00;95897.84;5009046;28;20535;-57
2022/01/15 04:55:18;;;;;;;31.88;17.92;;;;;;;-6.23;100.00;95895.53;4993569;28;20029;-54
2022/01/15 04:57:43;;;;;;;37.05;19.35;;;;;;;-6.25;100.00;95892.25;4993498;28;20030;-56
2022/01/15 05:00:12;;;;;;;34.42;18.40;;;;;;;-6.22;100.00;95889.34;4992306;28;20064;-59
2022/01/15 05:02:37;;;;;;;39.17;19.77;;;;;;;-6.23;100.00;95887.69;4992094;28;20026;-56
2022/01/15 05:05:03;;;;;;;35.63;18.52;;;;;;;-6.24;100.00;95898.28;4993563;28;20031;-60
2022/01/15 05:07:29;;;;;;;38.33;19.40;;;;;;;-6.28;100.00;95902.97;4993389;28;20026;-58
2022/01/15 05:09:54;;;;;;;38.55;19.20;;;;;;;-6.33;100.00;95897.34;4993126;28;20095;-61
2022/01/15 05:12:32;;;;;;;38.53;19.45;;;;;;;-6.34;100.00;95894.88;4993023;28;20556;-58
2022/01/15 05:14:58;;;;;;;33.97;18.42;;;;;;;-6.39;100.00;95891.88;4992907;28;20031;-59
2022/01/15 05:17:23;;;;;;;33.00;17.95;;;;;;;-6.46;100.00;95896.81;4993093;28;20634;-57
2022/01/15 05:19:49;;;;;;;37.10;18.73;;;;;;;-6.51;100.00;95897.25;4992944;28;20081;-60
2022/01/15 05:22:15;;;;;;;33.63;17.40;;;;;;;-6.57;100.00;95897.81;4992874;28;20030;-59
2022/01/15 05:24:40;;;;;;;34.03;17.70;;;;;;;-6.59;100.00;95897.13;4992926;28;20030;-59
2022/01/15 05:27:06;;;;;;;35.63;17.92;;;;;;;-6.60;100.00;95900.69;4991669;28;20022;-59
2022/01/15 05:29:31;;;;;;;35.28;18.45;;;;;;;-6.65;100.00;95900.28;4991575;28;20030;-57
2022/01/15 05:31:56;;;;;;;35.88;17.73;;;;;;;-6.65;100.00;95904.66;4992835;28;20070;-54
2022/01/15 05:34:22;;;;;;;33.58;17.85;;;;;;;-6.63;100.00;95894.91;4992935;28;20030;-54
2022/01/15 05:36:47;;;;;;;35.42;18.60;;;;;;;-6.63;100.00;95890.53;4992923;28;20038;-59
2022/01/15 05:39:13;;;;;;;39.83;19.00;;;;;;;-6.64;100.00;95888.88;4992704;28;20695;-59
2022/01/15 05:41:38;;;;;;;37.13;18.73;;;;;;;-6.65;100.00;95892.47;4992646;28;20512;-59
2022/01/15 05:44:04;;;;;;;33.28;17.15;;;;;;;-6.63;100.00;95892.31;4992511;28;20061;-57
2022/01/15 05:46:32;;;;;;;39.92;17.73;;;;;;;-6.57;100.00;95889.16;4991286;28;20113;-55
2022/01/15 05:48:58;;;;;;;31.00;17.45;;;;;;;-6.53;100.00;95893.13;4991257;28;20030;-58
2022/01/15 05:51:29;;;;;;;38.05;18.73;;;;;;;-6.51;100.00;95886.84;4992502;28;20034;-58
2022/01/15 05:53:58;;;;;;;36.80;18.55;;;;;;;-6.52;100.00;95874.72;4992581;28;20030;-59
2022/01/15 05:56:23;;;;;;;34.88;17.70;;;;;;;-6.53;100.00;95880.91;4991272;28;20030;-58
2022/01/15 05:58:49;;;;;;;36.60;19.75;;;;;;;-6.51;100.00;95878.19;4991839;28;20113;-61
2022/01/15 06:01:14;;;;;;;34.58;18.05;;;;;;;-6.51;100.00;95879.00;4990969;28;20113;-60
2022/01/15 06:03:40;;;;;;;34.22;17.15;;;;;;;-6.52;100.00;95869.53;4992434;28;20092;-58
2022/01/15 06:06:07;;;;;;;39.13;19.38;;;;;;;-6.51;100.00;95868.59;4992432;28;20025;-58
2022/01/15 06:08:33;;;;;;;33.88;17.52;;;;;;;-6.51;100.00;95871.19;4992216;28;20049;-57
2022/01/15 06:10:58;;;;;;;31.20;17.15;;;;;;;-6.53;100.00;95870.50;4992424;28;20054;-61
2022/01/15 06:13:23;;;;;;;36.70;18.73;;;;;;;-6.58;100.00;95870.09;4992157;28;20077;-57
2022/01/15 06:15:48;;;;;;;34.92;18.48;;;;;;;-6.59;100.00;95871.06;4992203;28;20030;-61
2022/01/15 06:18:14;;;;;;;35.42;18.75;;;;;;;-6.62;100.00;95868.75;4992148;28;20092;-60
2022/01/15 06:20:39;;;;;;;37.40;18.35;;;;;;;-6.62;100.00;95865.28;4990928;28;20037;-57
2022/01/15 06:23:04;;;;;;;36.47;17.95;;;;;;;-6.58;100.00;95862.28;4990782;28;20033;-58
2022/01/15 06:25:32;;;;;;;40.25;19.48;;;;;;;-6.53;100.00;95865.28;4990924;28;20026;-58
2022/01/15 06:27:57;;;;;;;36.65;19.13;;;;;;;-6.51;100.00;95871.19;4991943;28;20026;-56
2022/01/15 06:30:25;;;;;;;35.03;18.23;;;;;;;-6.49;100.00;95861.44;4991756;28;20123;-57
2022/01/15 06:32:50;;;;;;;34.72;17.85;;;;;;;-6.49;100.00;95877.09;4991929;28;20111;-59
2022/01/15 06:35:18;;;;;;;35.08;17.35;;;;;;;-6.48;100.00;95870.91;4990606;28;20018;-56
2022/01/15 06:37:47;;;;;;;39.90;18.20;;;;;;;-6.49;100.00;95863.22;4990605;28;20065;-61
2022/01/15 06:40:13;;;;;;;31.63;17.65;;;;;;;-6.49;100.00;95858.84;4991630;28;20615;-59
2022/01/15 06:42:39;;;;;;;34.33;17.50;;;;;;;-6.53;100.00;95851.44;4991800;28;20038;-59
2022/01/15 06:45:05;;;;;;;38.00;19.25;;;;;;;-6.49;100.00;95860.63;4991873;28;20019;-60
2022/01/15 06:47:33;;;;;;;44.92;18.90;;;;;;;-6.47;100.00;95848.28;4991832;28;20022;-59
2022/01/15 06:49:58;;;;;;;37.45;18.23;;;;;;;-6.46;100.00;95855.13;4991769;28;20070;-61
2022/01/15 06:52:24;;;;;;;40.45;19.35;;;;;;;-6.45;100.00;95852.38;4989615;28;20046;-59
2022/01/15 06:54:50;;;;;;;44.08;20.00;;;;;;;-6.40;100.00;95851.13;4987238;28;20022;-59
2022/01/15 06:57:15;;;;;;;38.03;18.08;;;;;;;-6.37;100.00;95853.47;4979499;28;20042;-61
2022/01/15 06:59:46;;;;;;;34.75;18.42;;;;;;;-6.38;100.00;95850.03;4997033;28;20042;-57
2022/01/15 07:02:13;;;;;;;37.80;20.02;;;;;;;-6.34;100.00;95850.56;5008326;28;20495;-59
2022/01/15 07:04:39;;;;;;;35.33;18.17;;;;;;;-6.36;100.00;95853.31;4992299;28;20018;-60
2022/01/15 07:07:04;;;;;;;37.63;19.13;;;;;;;-6.40;100.00;95846.75;4997026;28;20022;-59
2022/01/15 07:09:30;;;;;;;39.55;19.45;;;;;;;-6.45;100.00;95841.94;4989146;28;20488;-58
2022/01/15 07:11:56;;;;;;;41.53;19.63;;;;;;;-6.46;100.00;95845.53;4993715;28;20030;-58
2022/01/15 07:14:21;;;;;;;39.97;20.38;;;;;;;-6.45;100.00;95839.34;4964409;28;20030;-58
2022/01/15 07:16:47;;;;;;;41.47;20.25;;;;;;;-6.41;100.00;95837.25;4994839;28;21993;-58
2022/01/15 07:19:12;;;;;;;41.38;20.27;;;;;;;-6.30;100.00;95833.66;4991675;28;20014;-57
2022/01/15 07:21:40;;;;;;;40.63;20.42;;;;;;;-6.22;100.00;95836.38;4995765;28;22026;-62
2022/01/15 07:24:06;;;;;;;46.45;20.35;;;;;;;-6.16;100.00;95828.00;4994381;28;20102;-59
2022/01/15 07:26:31;;;;;;;39.75;19.58;;;;;;;-6.08;100.00;95830.69;5004172;28;20548;-59
2022/01/15 07:28:58;;;;;;;40.75;20.58;;;;;;;-6.07;100.00;95832.34;4993156;28;20117;-57
2022/01/15 07:31:25;;;;;;;38.25;19.38;;;;;;;-6.07;100.00;95828.94;4998957;28;20053;-60
2022/01/15 07:33:51;;;;;;;40.08;20.15;;;;;;;-6.03;100.00;95827.66;4993622;28;20101;-59
2022/01/15 07:36:17;;;;;;;42.22;20.92;;;;;;;-6.04;100.00;95837.28;5003644;28;20018;-64
2022/01/15 07:38:43;;;;;;;45.33;20.83;;;;;;;-5.99;100.00;95840.25;4973683;28;20074;-58
2022/01/15 07:41:13;;;;;;;42.83;22.10;;;;;;;-5.94;100.00;95829.41;4999912;28;20018;-60
2022/01/15 07:43:39;;;;;;;40.10;21.27;;;;;;;-5.93;100.00;95831.88;4992594;28;20030;-59
2022/01/15 07:46:05;;;;;;;41.13;19.90;;;;;;;-5.91;100.00;95835.16;4995609;28;20045;-59
2022/01/15 07:48:30;;;;;;;40.97;20.20;;;;;;;-5.91;100.00;95826.50;5003281;28;20485;-60
2022/01/15 07:50:56;;;;;;;45.22;20.25;;;;;;;-5.92;100.00;95823.06;5013251;28;20095;-56
2022/01/15 07:53:21;;;;;;;45.42;21.55;;;;;;;-5.91;100.00;95829.09;4991598;28;20031;-55
2022/01/15 07:55:46;;;;;;;40.42;20.20;;;;;;;-5.93;100.00;95829.25;4995462;28;20487;-55
2022/01/15 07:58:12;;;;;;;39.58;20.80;;;;;;;-5.98;100.00;95828.03;4992231;28;20026;-57
2022/01/15 08:00:37;;;;;;;37.03;19.35;;;;;;;-5.99;100.00;95829.00;4997916;28;20038;-55
2022/01/15 08:03:02;;;;;;;38.92;19.48;;;;;;;-6.00;100.00;95828.19;4996478;28;20084;-56
2022/01/15 08:05:28;;;;;;;40.45;20.83;;;;;;;-6.00;100.00;95824.75;5010140;28;20053;-54
2022/01/15 08:07:55;;;;;;;39.28;20.38;;;;;;;-5.98;100.00;95831.47;5001657;28;20026;-59
2022/01/15 08:10:21;;;;;;;41.53;21.63;;;;;;;-5.91;100.00;95824.72;4988691;28;20026;-59
2022/01/15 08:12:49;;;;;;;50.33;23.98;;;;;;;-5.87;100.00;95822.59;4992899;28;20033;-60
2022/01/15 08:15:16;;;;;;;45.10;22.25;;;;;;;-5.82;100.00;95817.78;5004675;28;20080;-59
2022/01/15 08:17:42;;;;;;;42.03;21.05;;;;;;;-5.80;100.00;95817.63;4935289;28;20386;-59
2022/01/15 08:20:08;;;;;;;41.53;21.40;;;;;;;-5.74;100.00;95817.06;5005021;28;20022;-58
2022/01/15 08:22:34;;;;;;;43.30;22.20;;;;;;;-5.68;100.00;95809.44;5001213;28;20420;-61
2022/01/15 08:24:59;;;;;;;42.25;22.83;;;;;;;-5.61;100.00;95801.84;4996320;28;20029;-59
2022/01/15 08:27:25;;;;;;;44.90;22.08;;;;;;;-5.57;100.00;95804.00;4997311;28;21323;-59
2022/01/15 08:29:50;;;;;;;47.30;22.33;;;;;;;-5.45;100.00;95799.38;4994791;28;20021;-57
2022/01/15 08:32:15;;;;;;;44.88;22.38;;;;;;;-5.34;100.00;95793.13;4992651;28;20472;-57
2022/01/15 08:34:43;;;;;;;46.92;23.08;;;;;;;-5.22;100.00;95796.31;5007609;28;20018;-54
2022/01/15 08:37:08;;;;;;;44.58;23.00;;;;;;;-5.14;100.00;95797.22;4992048;28;20018;-58
2022/01/15 08:39:35;;;;;;;42.25;22.70;;;;;;;-5.05;100.00;95795.50;5004064;28;20129;-57
2022/01/15 08:42:01;;;;;;;44.15;22.88;;;;;;;-4.98;100.00;95793.94;4994138;28;20093;-58
2022/01/15 08:44:27;;;;;;;46.58;22.77;;;;;;;-4.86;100.00;95790.09;4996551;28;20026;-59
2022/01/15 08:46:52;;;;;;;47.42;22.17;;;;;;;-4.73;100.00;95787.09;4993892;28;20454;-55
2022/01/15 08:49:18;;;;;;;45.45;22.27;;;;;;;-4.62;100.00;95786.00;5007579;28;20034;-57
2022/01/15 08:51:44;;;;;;;51.55;24.77;;;;;;;-4.54;100.00;95773.81;5012909;28;20029;-59
2022/01/15 08:54:09;;;;;;;45.80;22.95;;;;;;;-4.45;100.00;95775.50;5012187;28;20470;-59
2022/01/15 08:56:35;;;;;;;49.33;23.52;;;;;;;-4.33;100.00;95772.63;5011093;28;20108;-60
2022/01/15 08:59:04;;;;;;;46.45;23.35;;;;;;;-4.22;100.00;95767.94;5012313;28;20029;-58
2022/01/15 09:01:31;;;;;;;48.92;25.10;;;;;;;-4.11;100.00;95770.25;5010961;28;20477;-59
2022/01/15 09:03:57;;;;;;;48.50;24.15;;;;;;;-3.99;100.00;95764.75;5011478;28;20091;-59
2022/01/15 09:06:27;;;;;;;51.42;25.55;;;;;;;-3.85;100.00;95756.28;5010871;28;20219;-56
2022/01/15 09:08:52;;;;;;;50.17;25.50;;;;;;;-3.73;100.00;95754.16;4995575;28;20026;-58
2022/01/15 09:11:18;;;;;;;52.67;25.45;;;;;;;-3.59;100.00;95750.91;4975101;28;20034;-59
2022/01/15 09:13:43;;;;;;;57.50;25.83;;;;;;;-3.40;100.00;95741.94;4992522;28;20497;-56
2022/01/15 09:16:08;;;;;;;50.78;25.98;;;;;;;-3.20;100.00;95735.41;4992527;28;20034;-56
2022/01/15 09:18:34;;;;;;;52.30;26.83;;;;;;;-2.94;100.00;95732.59;4992323;28;20053;-57
2022/01/15 09:21:00;;;;;;;54.15;29.23;;;;;;;-2.64;100.00;95723.22;4992473;28;20037;-58
2022/01/15 09:23:28;;;;;;;58.35;28.48;;;;;;;-2.33;100.00;95723.31;5007476;28;20026;-60
2022/01/15 09:25:53;;;;;;;58.30;30.23;;;;;;;-2.03;100.00;95707.78;4991092;28;20027;-59
2022/01/15 09:31:03;;;;;;;72.13;34.75;;;;;;;-1.67;100.00;95698.38;4992556;28;20104;-61
2022/01/15 09:33:28;;;;;;;69.85;33.65;;;;;;;-1.66;100.00;95699.19;4991755;28;20019;-59
2022/01/15 09:35:54;;;;;;;70.82;33.90;;;;;;;-1.58;100.00;95704.38;4991326;28;20580;-60
2022/01/15 09:38:21;;;;;;;70.82;32.90;;;;;;;-1.54;100.00;95706.47;4991706;28;20045;-62
2022/01/15 09:40:46;;;;;;;65.35;33.85;;;;;;;-1.29;100.00;95704.50;4992533;28;20024;-64
2022/01/15 09:43:13;;;;;;;59.85;30.65;;;;;;;-1.19;100.00;95697.22;5006749;28;20109;-63
2022/01/15 09:45:40;;;;;;;63.17;31.33;;;;;;;-1.12;100.00;95694.66;4991908;28;20101;-63
2022/01/15 09:48:08;;;;;;;55.28;27.73;;;;;;;-1.17;100.00;95686.50;4991294;28;20026;-64
2022/01/15 09:50:41;;;;;;;54.08;27.17;;;;;;;-1.11;100.00;95690.22;4989826;28;20034;-65
2022/01/15 09:53:07;;;;;;;46.33;24.88;;;;;;;-0.99;100.00;95686.16;5001586;28;20034;-66
2022/01/15 09:55:32;;;;;;;48.67;26.10;;;;;;;-1.00;100.00;95692.44;4998855;28;20469;-65
2022/01/15 09:57:57;;;;;;;49.60;25.88;;;;;;;-0.82;100.00;95690.28;5005761;28;20021;-65
2022/01/15 10:00:24;;;;;;;50.03;25.52;;;;;;;-0.55;100.00;95677.50;4996599;28;20026;-63
2022/01/15 10:02:51;;;;;;;50.88;26.52;;;;;;;-0.23;100.00;95673.69;4997441;28;20515;-61
2022/01/15 10:05:18;;;;;;;47.28;25.80;;;;;;;0.10;100.00;95666.19;4995552;28;20098;-63
2022/01/15 10:07:57;;;;;;;50.70;26.80;;;;;;;0.43;100.00;95650.72;4987480;28;20018;-62
2022/01/15 10:10:24;;;;;;;52.08;25.63;;;;;;;0.53;100.00;95648.59;5000083;28;20034;-63
2022/01/15 10:12:49;;;;;;;45.40;24.58;;;;;;;0.69;100.00;95642.25;4991608;28;20022;-62
2022/01/15 10:15:16;;;;;;;46.33;24.42;;;;;;;0.86;100.00;95635.69;4991499;28;20026;-62
2022/01/15 10:17:42;;;;;;;46.55;24.33;;;;;;;0.95;100.00;95629.28;4986525;28;21932;-61
2022/01/15 10:20:21;;;;;;;47.80;24.35;;;;;;;0.97;100.00;95626.44;4989781;28;20303;-63
2022/01/15 10:22:51;;;;;;;43.72;23.00;;;;;;;1.07;100.00;95616.38;4993498;28;20040;-62
2022/01/15 10:25:21;;;;;;;40.55;22.48;;;;;;;1.10;100.00;95610.72;4995054;28;20033;-63
2022/01/15 10:27:51;;;;;;;41.58;23.15;;;;;;;1.04;100.00;95611.50;4993043;28;20026;-63
2022/01/15 10:30:20;;;;;;;40.10;21.80;;;;;;;0.87;100.00;95603.06;4964256;28;20030;-64
2022/01/15 10:32:56;;;;;;;40.20;22.50;;;;;;;0.61;100.00;95616.84;4990442;28;20070;-64
2022/01/15 10:35:22;;;;;;;40.58;22.00;;;;;;;0.60;100.00;95598.56;4991505;28;20552;-64
2022/01/15 10:37:54;;;;;;;40.05;21.48;;;;;;;0.56;100.00;95604.25;4989342;28;20121;-64
2022/01/15 10:40:25;;;;;;;40.50;22.50;;;;;;;0.61;100.00;95597.56;4990856;28;20563;-62
2022/01/15 10:43:00;;;;;;;43.70;22.58;;;;;;;0.68;100.00;95595.81;4991005;28;20144;-63
2022/01/15 10:45:31;;;;;;;42.03;23.27;;;;;;;0.83;100.00;95586.78;5005628;28;20023;-63
2022/01/15 10:48:01;;;;;;;42.90;23.10;;;;;;;0.79;100.00;95579.47;4989467;28;20062;-63
2022/01/15 10:50:31;;;;;;;42.03;22.95;;;;;;;0.85;100.00;95576.88;4955848;28;20050;-63
2022/01/15 10:53:03;;;;;;;44.47;22.95;;;;;;;1.01;100.00;95567.84;4985787;28;20117;-64
2022/01/15 10:55:31;;;;;;;44.13;23.80;;;;;;;1.21;100.00;95562.69;4981249;28;20033;-65
2022/01/15 10:57:59;;;;;;;39.65;22.23;;;;;;;1.40;100.00;95554.03;4994751;28;20050;-65
2022/01/15 11:00:30;;;;;;;43.90;23.02;;;;;;;1.66;100.00;95541.97;4992665;28;20038;-66
2022/01/15 11:03:05;;;;;;;44.05;24.65;;;;;;;2.00;100.00;95527.84;4999699;28;20026;-66
2022/01/15 11:05:45;;;;;;;42.30;23.05;;;;;;;2.16;100.00;95508.94;4990543;28;20044;-65
2022/01/15 11:08:26;;;;;;;42.80;22.50;;;;;;;2.35;100.00;95509.16;4997788;28;20026;-64
2022/01/15 11:10:51;;;;;;;42.08;22.75;;;;;;;2.54;100.00;95498.59;4995475;28;20018;-66
2022/01/15 11:13:21;;;;;;;45.65;24.25;;;;;;;2.53;100.00;95493.53;4994556;28;20034;-66
2022/01/15 11:15:50;;;;;;;42.25;24.52;;;;;;;2.59;100.00;95484.75;5014690;28;20419;-66
2022/01/15 11:18:21;;;;;;;45.08;23.95;;;;;;;2.64;100.00;95478.88;4993774;28;20038;-66
2022/01/15 11:20:49;;;;;;;44.28;25.13;;;;;;;2.63;100.00;95471.94;4996294;28;20027;-66
2022/01/15 11:23:17;;;;;;;45.35;23.55;;;;;;;2.78;100.00;95465.41;4994954;28;20243;-69
2022/01/15 11:25:44;;;;;;;44.53;23.20;;;;;;;2.79;100.00;95453.78;4997269;28;20541;-66
2022/01/15 11:28:12;;;;;;;43.08;24.08;;;;;;;2.88;100.00;95443.81;5000274;28;20033;-66
2022/01/15 11:30:38;;;;;;;43.60;23.52;;;;;;;2.74;100.00;95436.94;4996461;28;20038;-65
2022/01/15 11:33:04;;;;;;;43.92;24.63;;;;;;;2.56;100.00;95433.09;4990506;28;20057;-65
2022/01/15 11:35:41;;;;;;;45.17;23.98;;;;;;;2.49;100.00;95426.19;4989710;28;20058;-65